Time;durP1;ratioP1;P1;durP2;ratioP2;P2;SDS_P1;SDS_P2;PMS_P1;PMS_P2;Temp;Humidity;BMP_temperature;BMP_pressure;BME280_temperature;BME280_humidity;BME280_pressure;Samples;Min_cycle;Max_cycle;Signal;HPM_P1;HPM_P2
2023/05/12 00:01:23;;;;;;;10.65;5.47;;;;;;;12.16;100.00;101593.91;5078072;28;20063;-90
2023/05/12 00:03:52;;;;;;;6.55;4.30;;;;;;;12.23;100.00;101577.22;5082601;28;20038;-91
2023/05/12 00:06:17;;;;;;;8.70;3.58;;;;;;;12.35;100.00;101556.56;5083338;28;20073;-90
2023/05/12 00:08:43;;;;;;;8.52;4.82;;;;;;;12.19;100.00;101584.78;5077670;28;20508;-91
2023/05/12 00:11:08;;;;;;;9.98;4.47;;;;;;;12.26;100.00;101573.66;5106801;28;20477;-90
2023/05/12 00:13:33;;;;;;;7.03;3.97;;;;;;;12.38;100.00;101579.09;5082338;28;20024;-89
2023/05/12 00:15:59;;;;;;;11.20;5.75;;;;;;;12.38;100.00;101570.69;5078732;28;20034;-91
2023/05/12 00:18:25;;;;;;;10.38;5.22;;;;;;;12.26;100.00;101562.44;5083606;28;20089;-91
2023/05/12 00:20:52;;;;;;;9.25;4.97;;;;;;;12.28;100.00;101574.09;5104342;28;20846;-91
2023/05/12 00:23:18;;;;;;;9.88;4.93;;;;;;;12.34;100.00;101560.56;5084257;28;20492;-92
2023/05/12 00:25:43;;;;;;;8.15;4.57;;;;;;;12.09;100.00;101565.72;5087411;28;20024;-91
2023/05/12 00:28:08;;;;;;;10.35;4.97;;;;;;;12.23;100.00;101557.59;5085350;28;20015;-92
2023/05/12 00:30:34;;;;;;;12.63;6.28;;;;;;;12.23;100.00;101560.38;5079449;28;20050;-91
2023/05/12 00:33:04;;;;;;;10.25;5.18;;;;;;;12.05;100.00;101554.44;5083993;28;20065;-91
2023/05/12 00:35:29;;;;;;;11.55;6.30;;;;;;;12.11;100.00;101564.16;5105835;28;20048;-91
2023/05/12 00:37:55;;;;;;;11.00;6.07;;;;;;;12.26;100.00;101570.84;5086853;28;20057;-91
2023/05/12 00:40:20;;;;;;;11.57;5.75;;;;;;;12.33;100.00;101565.38;5104127;28;20044;-89
2023/05/12 00:42:45;;;;;;;11.77;6.95;;;;;;;12.36;100.00;101558.22;5086793;28;20507;-89
2023/05/12 00:45:11;;;;;;;9.57;4.95;;;;;;;12.35;100.00;101546.19;5090910;28;20413;-91
2023/05/12 00:47:37;;;;;;;11.55;5.50;;;;;;;12.46;100.00;101568.81;5102789;28;20131;-90
2023/05/12 00:50:04;;;;;;;12.23;6.28;;;;;;;12.45;100.00;101570.00;5104535;28;20560;-91
2023/05/12 00:52:30;;;;;;;12.05;5.85;;;;;;;12.47;100.00;101572.44;5090150;27;20051;-90
2023/05/12 00:54:56;;;;;;;10.82;5.97;;;;;;;12.34;100.00;101561.38;5106680;28;20544;-91
2023/05/12 00:57:24;;;;;;;11.50;6.07;;;;;;;12.28;100.00;101548.03;5085423;28;20127;-91
2023/05/12 00:59:49;;;;;;;12.73;6.28;;;;;;;12.14;100.00;101563.44;5092250;28;20032;-88
2023/05/12 01:02:15;;;;;;;12.27;6.45;;;;;;;12.13;100.00;101556.19;5080455;28;20104;-90
2023/05/12 01:04:40;;;;;;;12.68;6.47;;;;;;;12.14;100.00;101551.38;5075067;28;20554;-88
2023/05/12 01:07:12;;;;;;;11.15;6.40;;;;;;;12.13;100.00;101567.41;5080067;28;20023;-90
2023/05/12 01:09:37;;;;;;;12.63;6.70;;;;;;;12.06;100.00;101570.09;5084577;28;20130;-89
2023/05/12 01:12:03;;;;;;;11.18;7.38;;;;;;;12.34;100.00;101561.38;5078360;28;20177;-90
2023/05/12 01:14:28;;;;;;;16.33;6.97;;;;;;;12.11;100.00;101555.75;5096116;28;20039;-89
2023/05/12 01:16:58;;;;;;;14.50;6.82;;;;;;;12.14;100.00;101535.38;5077671;28;20027;-89
2023/05/12 01:19:55;;;;;;;11.73;6.18;;;;;;;12.35;100.00;101551.78;5100428;28;20066;-90
2023/05/12 01:22:21;;;;;;;11.40;6.80;;;;;;;12.51;100.00;101548.84;5063917;28;20039;-90
2023/05/12 01:25:03;;;;;;;12.40;5.60;;;;;;;12.47;100.00;101552.78;5103797;28;20081;-90
2023/05/12 01:27:29;;;;;;;12.23;7.07;;;;;;;12.27;100.00;101561.25;5087728;28;20027;-88
2023/05/12 01:29:59;;;;;;;12.13;5.93;;;;;;;12.33;100.00;101554.16;5084867;28;20392;-89
2023/05/12 01:32:25;;;;;;;12.18;6.05;;;;;;;12.12;100.00;101553.75;5078674;28;20027;-90
2023/05/12 01:34:51;;;;;;;11.13;5.80;;;;;;;12.00;100.00;101552.75;5075376;28;20020;-89
2023/05/12 01:37:17;;;;;;;11.77;6.40;;;;;;;12.16;100.00;101558.25;5081164;28;20031;-89
2023/05/12 01:39:43;;;;;;;11.00;5.63;;;;;;;12.25;100.00;101545.97;5080007;28;20089;-89
2023/05/12 01:42:08;;;;;;;14.02;7.38;;;;;;;12.02;100.00;101548.72;5100733;28;20489;-89
2023/05/12 01:44:33;;;;;;;13.23;7.22;;;;;;;12.04;100.00;101551.97;5080824;28;20114;-90
2023/05/12 01:47:00;;;;;;;15.02;7.72;;;;;;;11.99;100.00;101553.09;5079147;28;20110;-89
2023/05/12 01:49:25;;;;;;;14.80;6.60;;;;;;;11.92;100.00;101567.81;5075705;28;20465;-90
2023/05/12 01:51:51;;;;;;;13.90;6.80;;;;;;;12.03;100.00;101553.19;5085765;28;20028;-89
2023/05/12 01:54:16;;;;;;;14.98;7.80;;;;;;;11.94;100.00;101565.44;5085717;28;20030;-89
2023/05/12 01:56:41;;;;;;;9.98;6.00;;;;;;;12.19;100.00;101565.13;5100265;28;20028;-88
2023/05/12 01:59:07;;;;;;;15.55;7.45;;;;;;;12.22;100.00;101564.38;5085558;28;20027;-90
2023/05/12 02:01:32;;;;;;;15.60;7.82;;;;;;;12.09;100.00;101548.88;5093777;28;20051;-90
2023/05/12 02:03:58;;;;;;;14.57;6.90;;;;;;;12.11;100.00;101558.56;5085600;28;20035;-90
2023/05/12 02:06:25;;;;;;;16.92;8.60;;;;;;;12.04;100.00;101566.84;5081314;28;20027;-89
2023/05/12 02:08:50;;;;;;;16.50;7.82;;;;;;;12.11;100.00;101569.78;5078981;28;20042;-89
2023/05/12 02:11:16;;;;;;;15.77;8.02;;;;;;;12.02;100.00;101572.00;5093531;28;20031;-89
2023/05/12 02:13:44;;;;;;;17.40;9.10;;;;;;;12.18;100.00;101581.16;5080348;28;20027;-90
2023/05/12 02:16:11;;;;;;;16.00;7.78;;;;;;;12.07;100.00;101562.47;5080670;28;20545;-89
2023/05/12 02:18:36;;;;;;;23.20;9.13;;;;;;;12.23;100.00;101574.44;5078325;28;20039;-90
2023/05/12 02:21:01;;;;;;;22.60;11.18;;;;;;;12.17;100.00;101573.09;5079515;28;20489;-90
2023/05/12 02:23:27;;;;;;;16.92;8.30;;;;;;;12.27;100.00;101568.84;5079659;28;20030;-88
2023/05/12 02:25:52;;;;;;;21.17;9.90;;;;;;;12.23;100.00;101563.19;5095538;28;20041;-89
2023/05/12 02:28:18;;;;;;;22.55;9.93;;;;;;;12.24;100.00;101562.00;5078182;28;20422;-89
2023/05/12 02:30:47;;;;;;;22.95;9.32;;;;;;;12.10;100.00;101558.91;5074697;28;21602;-89
2023/05/12 02:33:22;;;;;;;27.23;11.55;;;;;;;12.04;100.00;101574.44;5076382;28;20031;-90
2023/05/12 02:35:48;;;;;;;24.23;10.45;;;;;;;11.94;100.00;101579.47;5076614;28;20039;-90
2023/05/12 02:38:13;;;;;;;27.98;13.70;;;;;;;11.90;100.00;101577.78;5040700;28;1125412;-89
2023/05/12 02:40:39;;;;;;;26.98;11.98;;;;;;;11.94;100.00;101576.66;5080718;28;20046;-89
2023/05/12 02:43:05;;;;;;;25.65;12.35;;;;;;;11.95;100.00;101577.47;5081789;28;20513;-90
2023/05/12 02:45:30;;;;;;;26.20;13.02;;;;;;;12.06;100.00;101575.72;5079793;28;20368;-89
2023/05/12 02:47:56;;;;;;;31.67;14.18;;;;;;;12.17;100.00;101576.72;5084019;28;20027;-89
2023/05/12 02:50:21;;;;;;;29.27;12.77;;;;;;;12.04;100.00;101564.03;5103138;28;20819;-89
2023/05/12 02:52:47;;;;;;;27.70;13.98;;;;;;;12.00;100.00;101568.78;5098252;27;20043;-88
2023/05/12 02:55:13;;;;;;;33.85;14.65;;;;;;;12.14;100.00;101573.81;5071519;28;20053;-89
2023/05/12 02:57:38;;;;;;;34.92;14.38;;;;;;;12.05;100.00;101568.44;5083199;28;22063;-89
2023/05/12 03:00:05;;;;;;;31.63;13.85;;;;;;;12.08;100.00;101569.69;5084159;28;20043;-88
2023/05/12 03:02:33;;;;;;;29.20;13.35;;;;;;;12.05;100.00;101562.84;5096547;27;20067;-89
2023/05/12 03:04:59;;;;;;;34.42;14.82;;;;;;;12.08;100.00;101547.25;5079909;28;22556;-89
2023/05/12 03:07:25;;;;;;;31.95;15.07;;;;;;;12.05;100.00;101540.41;5075567;28;20225;-88
2023/05/12 03:09:50;;;;;;;36.10;15.73;;;;;;;12.04;100.00;101554.78;5089826;28;20037;-89
2023/05/12 03:12:16;;;;;;;37.78;15.85;;;;;;;12.03;100.00;101547.56;5094820;28;21351;-89
2023/05/12 03:14:41;;;;;;;41.15;16.77;;;;;;;12.10;100.00;101556.09;5075078;28;20035;-89
2023/05/12 03:17:07;;;;;;;32.00;13.70;;;;;;;12.19;100.00;101559.50;5073437;28;20024;-89
2023/05/12 03:19:33;;;;;;;38.78;16.13;;;;;;;12.19;100.00;101551.88;5080100;28;20069;-88
2023/05/12 03:21:59;;;;;;;38.83;15.55;;;;;;;12.03;100.00;101556.00;5095063;28;20052;-89
2023/05/12 03:24:24;;;;;;;35.97;16.80;;;;;;;12.28;100.00;101562.88;5092736;28;20513;-88
2023/05/12 03:26:50;;;;;;;41.72;18.13;;;;;;;12.22;100.00;101564.38;5090314;28;20031;-89
2023/05/12 03:29:15;;;;;;;44.42;17.98;;;;;;;12.19;100.00;101559.50;5073994;28;20072;-89
2023/05/12 03:31:40;;;;;;;40.40;18.38;;;;;;;12.32;100.00;101574.19;5081729;28;20560;-88
2023/05/12 03:34:06;;;;;;;37.83;17.48;;;;;;;12.17;100.00;101561.88;5080703;28;20036;-89
2023/05/12 03:36:31;;;;;;;42.78;18.40;;;;;;;12.18;100.00;101563.47;5077738;28;20036;-88
2023/05/12 03:38:56;;;;;;;39.90;17.95;;;;;;;12.29;100.00;101570.13;5079099;28;20043;-88
2023/05/12 03:41:22;;;;;;;38.10;18.08;;;;;;;12.31;100.00;101569.72;5079707;28;20131;-89
2023/05/12 03:43:48;;;;;;;33.78;15.82;;;;;;;12.28;100.00;101554.44;5081088;28;20748;-88
2023/05/12 03:46:13;;;;;;;39.42;18.58;;;;;;;12.22;100.00;101564.38;5082708;28;20047;-88
2023/05/12 03:48:39;;;;;;;42.25;18.35;;;;;;;12.22;100.00;101563.56;5080415;28;20028;-88
2023/05/12 03:51:04;;;;;;;38.92;17.25;;;;;;;12.30;100.00;101568.13;5082591;28;20057;-88
2023/05/12 03:53:29;;;;;;;43.72;18.75;;;;;;;12.33;100.00;101562.59;5081109;28;20481;-89
2023/05/12 03:55:55;;;;;;;47.35;21.20;;;;;;;12.26;100.00;101550.41;5079121;28;20035;-89
2023/05/12 03:58:23;;;;;;;38.88;17.88;;;;;;;12.50;100.00;101566.06;5081736;28;20031;-89
2023/05/12 04:00:49;;;;;;;45.67;21.45;;;;;;;12.36;100.00;101559.00;5078499;28;20139;-88
2023/05/12 04:03:18;;;;;;;42.28;19.20;;;;;;;12.31;100.00;101567.75;5093718;28;20033;-88
2023/05/12 04:05:43;;;;;;;43.67;19.80;;;;;;;12.00;100.00;101547.13;5089033;28;20023;-88
2023/05/12 04:08:08;;;;;;;49.53;19.42;;;;;;;12.02;100.00;101546.75;5099207;28;20096;-88
2023/05/12 04:10:39;;;;;;;46.88;17.38;;;;;;;12.19;100.00;101567.94;5081061;28;20030;-88
2023/05/12 04:13:04;;;;;;;40.80;17.70;;;;;;;12.24;100.00;101567.59;5077186;28;20111;-88
2023/05/12 04:15:30;;;;;;;50.50;18.70;;;;;;;12.31;100.00;101567.75;5072624;28;20144;-88
2023/05/12 04:17:55;;;;;;;43.38;18.75;;;;;;;12.33;100.00;101570.16;5066618;28;20115;-88
2023/05/12 04:20:21;;;;;;;44.38;21.60;;;;;;;12.22;100.00;101564.38;5092286;28;20031;-88
2023/05/12 04:22:46;;;;;;;47.50;19.67;;;;;;;12.27;100.00;101569.69;5078112;28;20460;-89
2023/05/12 04:25:11;;;;;;;45.50;21.30;;;;;;;12.20;100.00;101564.72;5082057;28;20397;-89
2023/05/12 04:27:37;;;;;;;43.22;18.75;;;;;;;12.28;100.00;101584.53;5072437;28;20051;-89
2023/05/12 04:30:02;;;;;;;40.53;18.85;;;;;;;12.30;100.00;101587.78;5074934;28;20067;-88
2023/05/12 04:32:28;;;;;;;48.47;20.77;;;;;;;12.24;100.00;101573.22;5100272;28;20122;-88
2023/05/12 04:34:55;;;;;;;46.50;20.15;;;;;;;12.31;100.00;101590.22;5076944;28;20059;-88
2023/05/12 04:37:21;;;;;;;52.20;20.58;;;;;;;12.35;100.00;101590.25;5082801;28;20119;-88
2023/05/12 04:39:47;;;;;;;54.95;21.20;;;;;;;12.30;100.00;101594.19;5076590;28;20504;-89
2023/05/12 04:42:12;;;;;;;52.58;22.40;;;;;;;12.38;100.00;101595.94;5074470;28;20024;-89
2023/05/12 04:44:37;;;;;;;51.83;21.63;;;;;;;12.35;100.00;101593.91;5073418;28;20034;-88
2023/05/12 04:47:03;;;;;;;50.33;21.10;;;;;;;12.29;100.00;101597.38;5066736;28;20030;-88
2023/05/12 04:49:28;;;;;;;48.78;23.35;;;;;;;12.25;100.00;101596.47;5074441;28;20116;-89
2023/05/12 04:51:54;;;;;;;48.00;21.48;;;;;;;12.37;100.00;101599.94;5068360;28;20354;-89
2023/05/12 04:54:19;;;;;;;48.38;19.67;;;;;;;12.43;100.00;101605.25;5066825;28;20792;-88
2023/05/12 04:56:45;;;;;;;42.65;19.48;;;;;;;12.39;100.00;101605.19;5071703;28;20032;-89
2023/05/12 04:59:10;;;;;;;45.10;19.83;;;;;;;12.49;100.00;101612.19;5078952;28;20421;-88
2023/05/12 05:01:36;;;;;;;46.83;21.95;;;;;;;12.43;100.00;101614.47;5079680;28;20362;-88
2023/05/12 05:04:01;;;;;;;47.72;21.35;;;;;;;12.40;100.00;101612.44;5075831;28;24523;-88
2023/05/12 05:06:27;;;;;;;50.30;21.48;;;;;;;12.50;100.00;101619.41;5068213;28;20038;-88
2023/05/12 05:08:54;;;;;;;50.67;20.73;;;;;;;12.51;100.00;101627.47;5065060;28;20056;-88
2023/05/12 05:11:21;;;;;;;48.28;21.55;;;;;;;12.50;100.00;101622.22;5066469;28;20028;-89
2023/05/12 05:13:46;;;;;;;54.13;25.50;;;;;;;12.39;100.00;101611.59;5079447;28;20105;-88
2023/05/12 05:16:11;;;;;;;48.40;22.48;;;;;;;12.44;100.00;101621.72;5072158;28;20485;-88
2023/05/12 05:18:37;;;;;;;56.13;24.27;;;;;;;12.50;100.00;101625.03;5076064;28;21023;-87
2023/05/12 05:21:02;;;;;;;46.53;21.70;;;;;;;12.55;100.00;101635.97;5076078;28;20035;-89
2023/05/12 05:23:28;;;;;;;50.72;23.02;;;;;;;12.59;100.00;101642.47;5077572;28;20650;-89
2023/05/12 05:25:53;;;;;;;53.42;24.13;;;;;;;12.55;100.00;101633.97;5080803;28;20119;-89
2023/05/12 05:28:18;;;;;;;46.03;20.52;;;;;;;12.57;100.00;101633.59;5076805;28;20032;-89
2023/05/12 05:30:44;;;;;;;51.13;21.30;;;;;;;12.42;100.00;101621.28;5076108;28;20540;-89
2023/05/12 05:33:11;;;;;;;47.15;21.80;;;;;;;12.61;100.00;101632.47;5079762;28;20020;-90
2023/05/12 05:35:37;;;;;;;50.10;22.13;;;;;;;12.58;100.00;101629.59;5074095;28;20028;-88
2023/05/12 05:38:02;;;;;;;48.95;22.27;;;;;;;12.61;100.00;101638.09;5078286;28;20612;-89
2023/05/12 05:40:27;;;;;;;51.67;24.30;;;;;;;12.59;100.00;101636.84;5074639;28;20131;-90
2023/05/12 05:42:53;;;;;;;44.58;19.48;;;;;;;12.63;100.00;101640.53;5078048;28;20028;-90
2023/05/12 05:45:18;;;;;;;42.58;21.80;;;;;;;12.67;100.00;101647.03;5068489;28;20044;-89
2023/05/12 05:47:45;;;;;;;51.22;23.70;;;;;;;12.73;100.00;101656.78;5071636;28;20036;-90
2023/05/12 05:50:11;;;;;;;54.15;24.20;;;;;;;12.67;100.00;101658.25;5074793;28;20477;-90
2023/05/12 05:52:36;;;;;;;54.35;21.30;;;;;;;12.69;100.00;101666.28;5077758;28;20081;-90
2023/05/12 05:55:02;;;;;;;50.75;22.50;;;;;;;12.69;100.00;101671.91;5067357;28;20089;-89
2023/05/12 05:57:27;;;;;;;49.60;22.55;;;;;;;12.71;100.00;101675.16;5073184;28;20397;-90
2023/05/12 05:59:53;;;;;;;53.22;22.48;;;;;;;12.68;100.00;101675.91;5077602;28;20380;-89
2023/05/12 06:02:21;;;;;;;42.22;19.65;;;;;;;12.81;100.00;101674.56;5072381;28;20631;-90
2023/05/12 06:04:47;;;;;;;53.15;23.70;;;;;;;12.86;100.00;101681.84;5094374;27;20033;-90
2023/05/12 06:07:12;;;;;;;17.13;8.88;;;;;;;13.41;100.00;101679.59;5066730;28;20495;-78
2023/05/12 06:09:41;;;;;;;38.63;15.88;;;;;;;13.95;100.00;101686.78;5070711;28;20040;-93
2023/05/12 06:12:08;;;;;;;42.10;20.00;;;;;;;13.56;100.00;101687.06;5069145;28;20421;-86
2023/05/12 06:14:33;;;;;;;43.55;20.05;;;;;;;13.32;100.00;101664.97;5072600;28;20344;-76
2023/05/12 06:16:58;;;;;;;41.10;18.33;;;;;;;13.34;100.00;101690.72;5077362;28;20497;-77
2023/05/12 06:19:23;;;;;;;43.08;20.23;;;;;;;13.26;100.00;101681.34;5069575;28;20059;-76
2023/05/12 06:21:51;;;;;;;42.17;20.60;;;;;;;13.29;100.00;101688.25;5066682;28;20154;-77
2023/05/12 06:24:16;;;;;;;44.20;20.65;;;;;;;13.35;100.00;101687.53;5068649;28;20032;-76
2023/05/12 06:26:42;;;;;;;42.13;20.30;;;;;;;13.30;100.00;101698.28;5075400;28;20028;-77
2023/05/12 06:29:07;;;;;;;49.45;22.95;;;;;;;13.32;100.00;101707.16;5068659;28;20382;-77
2023/05/12 06:31:33;;;;;;;46.75;20.25;;;;;;;13.28;100.00;101709.91;5071981;28;20678;-77
2023/05/12 06:33:58;;;;;;;49.80;20.65;;;;;;;13.30;100.00;101706.72;5073704;28;20796;-78
2023/05/12 06:36:24;;;;;;;44.67;20.77;;;;;;;13.35;100.00;101700.81;5069457;28;20075;-77
2023/05/12 06:38:49;;;;;;;50.08;24.25;;;;;;;13.37;100.00;101702.03;5080515;28;20088;-77
2023/05/12 06:41:15;;;;;;;42.50;18.85;;;;;;;13.38;100.00;101702.84;5079461;28;20111;-77
2023/05/12 06:43:41;;;;;;;44.75;22.75;;;;;;;13.58;100.00;101703.56;5077783;28;20546;-78
2023/05/12 06:46:07;;;;;;;44.22;20.95;;;;;;;13.57;100.00;101710.38;5095366;28;20103;-78
2023/05/12 06:48:33;;;;;;;43.85;21.08;;;;;;;13.46;100.00;101703.78;5098147;28;20482;-78
2023/05/12 06:50:58;;;;;;;53.58;23.40;;;;;;;13.50;100.00;101708.25;5096361;28;20032;-78
2023/05/12 06:53:23;;;;;;;48.65;23.55;;;;;;;13.56;100.00;101706.75;5099990;27;20024;-77
2023/05/12 06:55:49;;;;;;;44.17;20.88;;;;;;;13.61;100.00;101714.06;5077797;28;20027;-78
2023/05/12 06:58:15;;;;;;;53.25;20.88;;;;;;;13.61;100.00;101717.66;5102163;27;20118;-78
2023/05/12 07:00:40;;;;;;;50.40;22.73;;;;;;;13.71;100.00;101718.22;5078693;28;20036;-79
2023/05/12 07:03:08;;;;;;;47.97;21.85;;;;;;;13.65;100.00;101712.09;5076009;28;20621;-78
2023/05/12 07:05:34;;;;;;;40.25;19.75;;;;;;;13.70;100.00;101713.78;5076686;28;20046;-77
2023/05/12 07:08:00;;;;;;;45.63;21.27;;;;;;;13.78;100.00;101715.50;5091880;28;20031;-77
2023/05/12 07:10:25;;;;;;;49.00;22.20;;;;;;;13.76;100.00;101717.88;5070750;28;20062;-77
2023/05/12 07:12:50;;;;;;;49.85;23.17;;;;;;;13.84;100.00;101719.63;5095129;28;20165;-77
2023/05/12 07:15:16;;;;;;;42.42;20.38;;;;;;;13.85;100.00;101724.06;5073010;28;20620;-78
2023/05/12 07:17:41;;;;;;;47.70;23.83;;;;;;;13.90;100.00;101722.94;5091629;28;20351;-78
2023/05/12 07:20:08;;;;;;;52.50;22.40;;;;;;;13.87;100.00;101718.88;5080357;28;20552;-77
2023/05/12 07:22:34;;;;;;;44.85;21.55;;;;;;;13.93;100.00;101733.41;5087803;27;20450;-77
2023/05/12 07:24:59;;;;;;;49.65;20.98;;;;;;;14.01;100.00;101723.88;5063921;28;20035;-77
2023/05/12 07:27:24;;;;;;;51.17;22.67;;;;;;;13.97;100.00;101726.63;5092477;27;20136;-77
2023/05/12 07:29:50;;;;;;;42.55;19.58;;;;;;;14.05;100.00;101724.75;5092729;28;20096;-77
2023/05/12 07:32:15;;;;;;;47.38;21.50;;;;;;;14.11;100.00;101730.84;5090098;28;20051;-77
2023/05/12 07:34:41;;;;;;;46.50;23.35;;;;;;;14.12;100.00;101732.47;5073418;28;20238;-77
2023/05/12 07:37:06;;;;;;;45.97;22.13;;;;;;;14.10;100.00;101726.41;5073394;28;20221;-77
2023/05/12 07:39:31;;;;;;;49.30;23.23;;;;;;;14.26;100.00;101740.31;5090246;28;20805;-78
2023/05/12 07:41:58;;;;;;;46.13;21.77;;;;;;;14.27;100.00;101739.91;5089296;28;20047;-79
2023/05/12 07:44:23;;;;;;;46.08;20.42;;;;;;;14.34;100.00;101725.94;5091861;28;20517;-78
2023/05/12 07:46:49;;;;;;;46.60;21.27;;;;;;;14.40;100.00;101738.47;5075446;28;20030;-78
2023/05/12 07:49:14;;;;;;;42.20;19.25;;;;;;;14.46;100.00;101738.13;5085004;28;20023;-78
2023/05/12 07:51:39;;;;;;;45.03;23.55;;;;;;;14.39;100.00;101744.47;5079229;28;20024;-79
2023/05/12 07:54:06;;;;;;;43.72;22.20;;;;;;;14.40;100.00;101751.75;5091204;28;20397;-78
2023/05/12 07:56:31;;;;;;;41.78;21.20;;;;;;;14.47;100.00;101751.03;5093768;28;20393;-78
2023/05/12 07:58:57;;;;;;;38.08;18.67;;;;;;;14.46;100.00;101753.00;5094457;28;20038;-78
2023/05/12 08:01:23;;;;;;;40.17;18.85;;;;;;;14.54;100.00;101751.91;5080459;28;20537;-78
2023/05/12 08:03:49;;;;;;;45.90;18.80;;;;;;;14.61;100.00;101756.88;5080142;28;20032;-78
2023/05/12 08:06:15;;;;;;;37.80;18.48;;;;;;;14.68;100.00;101756.94;5079921;28;20765;-78
2023/05/12 08:08:41;;;;;;;45.33;21.80;;;;;;;14.68;100.00;101751.31;5099402;28;20032;-78
2023/05/12 08:11:06;;;;;;;43.25;19.92;;;;;;;14.67;100.00;101760.13;5073773;28;20027;-78
2023/05/12 08:13:32;;;;;;;41.13;20.33;;;;;;;14.66;100.00;101756.50;5086177;28;20138;-78
2023/05/12 08:15:57;;;;;;;48.22;22.42;;;;;;;14.68;100.00;101759.75;5096014;28;20103;-77
2023/05/12 08:18:22;;;;;;;36.10;18.77;;;;;;;14.64;100.00;101764.53;5078959;28;20056;-78
2023/05/12 08:20:49;;;;;;;36.78;20.20;;;;;;;14.70;100.00;101777.09;5102244;28;20088;-78
2023/05/12 08:23:16;;;;;;;42.38;22.30;;;;;;;14.71;100.00;101773.06;5075290;28;20047;-78
2023/05/12 08:25:43;;;;;;;39.65;19.25;;;;;;;14.79;100.00;101780.41;5079655;28;20042;-78
2023/05/12 08:28:09;;;;;;;38.33;18.33;;;;;;;14.73;100.00;101778.31;5098640;28;20061;-78
2023/05/12 08:30:35;;;;;;;33.80;18.15;;;;;;;14.82;100.00;101785.28;5095658;28;20023;-78
2023/05/12 08:33:02;;;;;;;39.00;18.10;;;;;;;14.83;100.00;101784.09;5089936;28;20047;-78
2023/05/12 08:35:27;;;;;;;37.88;19.08;;;;;;;14.83;100.00;101781.25;5101050;28;20106;-78
2023/05/12 08:37:53;;;;;;;36.00;17.92;;;;;;;14.88;100.00;101782.91;5083272;28;20072;-78
2023/05/12 08:40:20;;;;;;;33.22;17.85;;;;;;;14.87;100.00;101780.50;5099451;28;20043;-78
2023/05/12 08:43:00;;;;;;;33.20;17.85;;;;;;;14.90;100.00;101785.34;5098766;27;20028;-78
2023/05/12 08:45:27;;;;;;;35.85;18.90;;;;;;;14.95;100.00;101777.38;5100379;27;20088;-78
2023/05/12 08:47:53;;;;;;;36.90;17.85;;;;;;;15.01;100.00;101783.47;5099613;27;20103;-78
2023/05/12 08:50:21;;;;;;;37.40;20.05;;;;;;;15.08;100.00;101785.56;5104242;27;20096;-78
2023/05/12 08:52:48;;;;;;;35.60;17.10;;;;;;;15.12;100.00;101787.22;5086288;28;20545;-78
2023/05/12 08:55:14;;;;;;;38.80;19.38;;;;;;;15.17;100.00;101784.03;5095527;27;20550;-78
2023/05/12 08:57:44;;;;;;;33.80;18.92;;;;;;;15.30;100.00;101792.22;5082855;28;20030;-78
2023/05/12 09:00:11;;;;;;;43.00;20.08;;;;;;;15.45;100.00;101796.78;5097618;28;20019;-78
2023/05/12 09:02:41;;;;;;;36.80;18.33;;;;;;;15.42;100.00;101795.56;5085630;27;20028;-78
2023/05/12 09:05:08;;;;;;;31.13;15.57;;;;;;;15.40;100.00;101795.13;5096411;28;20505;-78
2023/05/12 09:07:35;;;;;;;33.05;17.42;;;;;;;15.44;100.00;101798.81;5090366;28;20615;-78
2023/05/12 09:10:03;;;;;;;33.58;15.88;;;;;;;15.48;100.00;101798.84;5076238;28;20469;-78
2023/05/12 09:12:32;;;;;;;31.05;16.02;;;;;;;15.44;100.00;101803.63;5091394;27;20031;-77
2023/05/12 09:15:03;;;;;;;34.38;17.83;;;;;;;15.49;100.00;101794.81;5098190;27;20023;-77
2023/05/12 09:17:29;;;;;;;36.67;18.42;;;;;;;15.66;100.00;101798.97;5081959;27;20088;-77
2023/05/12 09:19:54;;;;;;;34.35;15.85;;;;;;;15.76;100.00;101792.63;5098357;27;20031;-77
2023/05/12 09:22:30;;;;;;;31.30;16.58;;;;;;;15.92;100.00;101805.69;5093646;28;20412;-77
2023/05/12 09:24:55;;;;;;;28.75;15.93;;;;;;;15.96;100.00;101804.50;5096739;28;20027;-77
2023/05/12 09:27:28;;;;;;;33.20;17.00;;;;;;;16.04;100.00;101809.00;5075396;28;20100;-77
2023/05/12 09:29:54;;;;;;;32.33;17.02;;;;;;;16.11;100.00;101807.44;5091092;27;20043;-77
2023/05/12 09:32:32;;;;;;;35.70;16.25;;;;;;;16.34;100.00;101810.78;5097365;27;21414;-77
2023/05/12 09:35:05;;;;;;;30.58;17.10;;;;;;;16.66;100.00;101804.47;5098276;28;20149;-77
2023/05/12 09:37:31;;;;;;;32.95;16.15;;;;;;;16.90;100.00;101807.81;5092025;28;20750;-77
2023/05/12 09:40:01;;;;;;;31.17;14.88;;;;;;;17.02;100.00;101815.94;5095765;27;20039;-77
2023/05/12 09:42:29;;;;;;;25.10;13.25;;;;;;;17.11;100.00;101819.19;5085530;28;20400;-77
2023/05/12 09:44:59;;;;;;;29.63;14.50;;;;;;;17.26;100.00;101815.16;5105209;27;20028;-77
2023/05/12 09:47:30;;;;;;;29.60;15.82;;;;;;;16.91;100.00;101801.78;5100855;27;20031;-77
2023/05/12 09:49:56;;;;;;;28.85;13.65;;;;;;;17.02;100.00;101810.28;5093197;27;20023;-77
2023/05/12 09:52:22;;;;;;;25.90;14.10;;;;;;;17.00;100.00;101812.69;5108812;27;20032;-77
2023/05/12 09:54:47;;;;;;;32.90;16.50;;;;;;;17.04;100.00;101814.31;5100582;27;20469;-77
2023/05/12 09:57:15;;;;;;;29.35;15.43;;;;;;;17.39;100.00;101806.28;5080007;27;20028;-77
2023/05/12 09:59:43;;;;;;;28.08;16.13;;;;;;;17.46;100.00;101801.47;5080913;28;20062;-77
2023/05/12 10:02:12;;;;;;;25.25;13.18;;;;;;;17.37;100.00;101805.88;5093150;27;20279;-77
2023/05/12 10:04:48;;;;;;;25.48;12.68;;;;;;;17.41;100.00;101810.34;5102787;28;20074;-77
2023/05/12 10:07:16;;;;;;;20.23;12.25;;;;;;;17.59;100.00;101815.22;5098383;28;20023;-77
2023/05/12 10:09:43;;;;;;;25.80;14.30;;;;;;;17.40;100.00;101820.03;5084937;28;20038;-77
2023/05/12 10:12:09;;;;;;;26.40;14.57;;;;;;;17.46;100.00;101821.28;5106368;27;20024;-77
2023/05/12 10:14:35;;;;;;;22.40;12.75;;;;;;;17.42;100.00;101822.47;5096099;27;20023;-77
2023/05/12 10:17:01;;;;;;;24.02;13.32;;;;;;;17.41;100.00;101818.03;5095936;27;20038;-77
2023/05/12 10:19:31;;;;;;;24.40;13.75;;;;;;;17.83;100.00;101820.06;5081750;28;20031;-78
2023/05/12 10:21:57;;;;;;;24.50;13.02;;;;;;;18.01;100.00;101814.41;5083586;28;20020;-77
2023/05/12 10:24:28;;;;;;;24.55;13.10;;;;;;;18.19;100.00;101819.22;5093913;28;20324;-77
2023/05/12 10:26:55;;;;;;;24.40;12.95;;;;;;;18.16;100.00;101820.84;5100446;28;20035;-77
2023/05/12 10:29:28;;;;;;;22.98;11.77;;;;;;;18.29;100.00;101809.91;5100624;28;20257;-77
2023/05/12 10:31:53;;;;;;;21.25;11.57;;;;;;;18.40;100.00;101815.53;5100055;28;20084;-77
2023/05/12 10:34:19;;;;;;;22.38;11.38;;;;;;;18.76;100.00;101818.22;5097183;28;20031;-77
2023/05/12 10:36:48;;;;;;;24.85;12.48;;;;;;;19.04;100.00;101814.50;5089137;28;20523;-77
2023/05/12 10:39:17;;;;;;;18.95;10.68;;;;;;;19.03;100.00;101818.53;5098636;28;20039;-77
2023/05/12 10:41:42;;;;;;;15.05;9.77;;;;;;;19.23;100.00;101816.78;5088008;28;20024;-77
2023/05/12 10:44:11;;;;;;;17.48;9.57;;;;;;;19.53;100.00;101814.56;5097879;28;20023;-78
2023/05/12 10:46:36;;;;;;;20.50;10.63;;;;;;;19.00;100.00;101819.38;5084725;27;20072;-77
2023/05/12 10:49:04;;;;;;;19.25;11.23;;;;;;;18.55;100.00;101825.63;5098888;27;20027;-77
2023/05/12 10:51:50;;;;;;;17.85;10.50;;;;;;;18.44;100.00;101819.16;5081138;28;20031;-77
2023/05/12 10:54:23;;;;;;;20.27;10.13;;;;;;;18.75;100.00;101820.28;5089864;27;20027;-77
2023/05/12 10:56:49;;;;;;;18.00;9.57;;;;;;;18.83;100.00;101819.03;5102148;27;20031;-77
2023/05/12 10:59:22;;;;;;;15.68;8.52;;;;;;;18.83;100.00;101813.38;5094503;28;20423;-77
2023/05/12 11:02:00;;;;;;;13.57;8.82;;;;;;;19.21;100.00;101824.13;5095840;28;20027;-77